Wisconsin Logo

Beloit, WI Single Family Real Estate Listings

127 Total Real Estate Listings * Click on table heading to sort
Date Posted Property Type Style Address Price Living Area Lot Size Price/Sq Ft.
2017-05-22 Single Family Ranch 1721 House St Beloit, WI 53511 $84,000 1,296 sq. ft. 7,144 sq. ft. $65
2017-05-22 Single Family Bungalow 1946 Mound Ave Beloit, WI 53511 $41,900 962 sq. ft. 5,920 sq. ft. $44
2017-05-22 Single Family Victorian 713 St Lawrence Ave Beloit, WI 53511 $52,900 1,721 sq. ft. 9,148 sq. ft. $31
2017-05-19 Single Family Cape Cod 2056 Fairfax Ave Beloit, WI 53511 $34,500 1,056 sq. ft. 10,890 sq. ft. $33
2017-05-19 Single Family Ranch 3193 Warbler Ct Beloit, WI 53511 $249,900 1,716 sq. ft. 15,246 sq. ft. $146
2017-05-19 Single Family 852 Johnson St Beloit, WI 53511 $73,000 1,008 sq. ft. 6,273 sq. ft. $72
2017-05-19 Single Family National Folk/Farm 1226 Central Ave Beloit, WI 53511 $109,900 1,400 sq. ft. 6,186 sq. ft. $78
2017-05-18 Single Family Colonial 1428 Emerson St Beloit, WI 53511 $79,900 1,176 sq. ft. 2,962 sq. ft. $68
2017-05-18 Single Family Bungalow 1207 10th St Beloit, WI 53511 $45,900 660 sq. ft. 6,098 sq. ft. $70
2017-05-18 Single Family Ranch 1718 Johnson St Beloit, WI 53511 $83,500 1,470 sq. ft. 6,970 sq. ft. $57
2017-05-17 Single Family Cape Cod 1212 9th St Beloit, WI 53511 $63,000 1,342 sq. ft. 6,098 sq. ft. $47
2017-05-17 Single Family Ranch 1636 Dewey Ave Beloit, WI 53511 $30,000 572 sq. ft. 5,053 sq. ft. $52
2017-05-17 Single Family Colonial 556 Moore St Beloit, WI 53511 $63,000 1,424 sq. ft. 4,356 sq. ft. $44
2017-05-16 Single Family Ranch 1668 Chapman Ave Beloit, WI 53511 $44,900 1,246 sq. ft. 4,792 sq. ft. $36
2017-05-16 Single Family Colonial 102 8th St Beloit, WI 53511 $67,000 1,162 sq. ft. 5,793 sq. ft. $58
2017-05-16 Single Family Ranch 1828 Cleveland St Beloit, WI 53511 $103,000 1,416 sq. ft. 7,405 sq. ft. $73
2017-05-16 Single Family National Folk/Farm 710 Vine St Beloit, WI 53511 $49,900 1,240 sq. ft. 1,655 sq. ft. $40
2017-05-15 Single Family Ranch 820 Lilac Rd Beloit, WI 53511 $139,900 1,880 sq. ft. 11,326 sq. ft. $74
2017-05-15 Single Family Ranch 2590 Riverside Dr Beloit, WI 53511 $110,000 1,010 sq. ft. 20,909 sq. ft. $109
2017-05-15 Single Family Transitional 239 Dawson Ave Beloit, WI 53511 $69,900 1,160 sq. ft. 15,477 sq. ft. $60
2017-05-15 Single Family Bungalow 340 Vernon Ave Beloit, WI 53511 $49,900 1,148 sq. ft. 6,970 sq. ft. $43
2017-05-15 Single Family Contemporary 2661 Ridge Dr Beloit, WI 53511 $299,900 4,027 sq. ft. 43,952 sq. ft. $74
2017-05-13 Single Family Bungalow 747 Mckinley Ave Beloit, WI 53511 $37,900 1,072 sq. ft. 7,841 sq. ft. $35
2017-05-12 Single Family National Folk/Farm 1150 Vine St Beloit, WI 53511 $85,500 1,464 sq. ft. 8,581 sq. ft. $58
2017-05-12 Single Family Tri-Level 2120 Elmwood Ave Beloit, WI 53511 $125,000 1,680 sq. ft. 12,371 sq. ft. $74
2017-05-11 Single Family Bungalow 1026 Grant St Beloit, WI 53511 $64,900 1,056 sq. ft. 6,970 sq. ft. $61
2017-05-11 Single Family Ranch 2111 Roosevelt Ave Beloit, WI 53511 $153,500 1,940 sq. ft. 9,148 sq. ft. $79
2017-05-10 Single Family National Folk/Farm 437 Harrison Ave Beloit, WI 53511 $32,900 2,296 sq. ft. 9,583 sq. ft. $14
2017-05-10 Single Family Bungalow 1615 Manchester St Beloit, WI 53511 $98,500 1,900 sq. ft. 6,403 sq. ft. $52
2017-05-10 Single Family 1414 Porter Ave Beloit, WI 53511 $60,000 1,456 sq. ft. 6,098 sq. ft. $41
2017-05-10 Single Family National Folk/Farm 936 10th St Beloit, WI 53511 $66,000 1,266 sq. ft. 6,534 sq. ft. $52
2017-05-08 Single Family 721 St Lawrence Ave Beloit, WI 53511 $35,900 792 sq. ft. 7,405 sq. ft. $45
2017-05-06 Single Family 757 Euclid Ave Beloit, WI 53511 $92,000 2,041 sq. ft. 13,504 sq. ft. $45
2017-05-04 Single Family Ranch 1664 Sheridan Ave Beloit, WI 53511 $61,900 819 sq. ft. 5,227 sq. ft. $76
2017-05-04 Single Family Ranch 1648 Grant St Beloit, WI 53511 $55,900 672 sq. ft. 7,841 sq. ft. $83
2017-05-04 Single Family Ranch 2130 Nye School Rd Beloit, WI 53511 $167,000 1,080 sq. ft. 54,668 sq. ft. $155
2017-05-01 Single Family Bungalow 2256 Riverside Dr Beloit, WI 53511 $169,900 1,956 sq. ft. 39,204 sq. ft. $87
2017-05-01 Single Family Cape Cod 1214 Middle St Beloit, WI 53511 $72,900 1,388 sq. ft. 4,487 sq. ft. $53
2017-05-01 Single Family Bungalow 1159 Division St Beloit, WI 53511 $49,900 824 sq. ft. 38,333 sq. ft. $61
2017-05-01 Single Family Tri-Level 433 Linda Ave Beloit, WI 53511 $154,900 1,740 sq. ft. 18,557 sq. ft. $89
2017-04-30 Single Family Ranch 1526 Lincoln Heights Beloit, WI 53511 $103,000 1,203 sq. ft. 6,534 sq. ft. $86
2017-04-30 Single Family Raised Ranch 2866 Riverside Dr Beloit, WI 53511 $270,000 2,232 sq. ft. 18,949 sq. ft. $121
2017-04-29 Single Family Bungalow 847 Moore St Beloit, WI 53511 $74,900 1,714 sq. ft. 6,186 sq. ft. $44
2017-04-28 Single Family Transitional 1113 Elm St Beloit, WI 53511 $34,900 750 sq. ft. 6,098 sq. ft. $47
2017-04-26 Single Family Ranch 1615 Zick Dr Beloit, WI 53511 $235,000 2,906 sq. ft. 14,985 sq. ft. $81
2017-04-26 Single Family Colonial 714 Olympian Blvd Beloit, WI 53511 $90,000 1,671 sq. ft. 9,148 sq. ft. $54
2017-04-26 Single Family Ranch 846 Holiday Dr Beloit, WI 53511 $150,000 1,912 sq. ft. 12,558 sq. ft. $78
2017-04-26 Single Family Colonial 727 Kaleen Ln Beloit, WI 53511 $234,900 2,178 sq. ft. 19,166 sq. ft. $108
2017-04-25 Single Family 722 Euclid Ave Beloit, WI 53511 $58,500 1,647 sq. ft. 8,712 sq. ft. $36
2017-04-24 Single Family Contemporary 709 Hill Rd Beloit, WI 53511 $237,900 3,848 sq. ft. 37,897 sq. ft. $62
2017-04-24 Single Family Ranch 1784 Briar Ln Beloit, WI 53511 $129,900 1,144 sq. ft. 13,939 sq. ft. $114
2017-04-22 Single Family Bungalow 323 Vernon Ave Beloit, WI 53511 $20,000 1,184 sq. ft. 6,098 sq. ft. $17
2017-04-22 Single Family Ranch 3265 Vel Marge Pky Beloit, WI 53511 $235,000 3,492 sq. ft. 44,867 sq. ft. $67
2017-04-21 Single Family 712 Grand Ave Beloit, WI 53511 $72,000 2,332 sq. ft. 13,068 sq. ft. $31
2017-04-21 Single Family Cape Cod 1207 11th St Beloit, WI 53511 $75,000 1,264 sq. ft. 5,445 sq. ft. $59
2017-04-19 Single Family Ranch 1962 Meadow Dr Beloit, WI 53511 $125,000 1,612 sq. ft. 9,453 sq. ft. $78
2017-04-18 Single Family Ranch 1916 Lenox Ave Beloit, WI 53511 $39,900 414 sq. ft. 5,227 sq. ft. $96
2017-04-18 Single Family Ranch 2120 Prairie Ave Beloit, WI 53511 $119,900 1,707 sq. ft. 31,799 sq. ft. $70
2017-04-18 Single Family Ranch 1205 Lincoln Ave Beloit, WI 53511 $105,000 1,470 sq. ft. 6,534 sq. ft. $71
2017-04-17 Single Family Cape Cod 3026 Riverside Dr Beloit, WI 53511 $389,000 2,252 sq. ft. 98,446 sq. ft. $173
2017-04-17 Single Family Bungalow 1125 11th St Beloit, WI 53511 $68,600 692 sq. ft. 5,445 sq. ft. $99
2017-04-17 Single Family Bungalow 941 Cleveland St Beloit, WI 53511 $72,500 860 sq. ft. 6,970 sq. ft. $84
2017-04-14 Single Family Contemporary 3375 Riverside Dr Beloit, WI 53511 $389,900 8,790 sq. ft. 112,820 sq. ft. $44
2017-04-13 Single Family Ranch 1620 Campus Dr Beloit, WI 53511 $110,000 2,260 sq. ft. 10,803 sq. ft. $49
2017-04-12 Single Family Ranch 2661 Sarah Ln Beloit, WI 53511 $247,500 2,938 sq. ft. 18,905 sq. ft. $84
2017-04-11 Single Family 1251 Eaton Ave Beloit, WI 53511 $87,900 1,541 sq. ft. 7,405 sq. ft. $57
2017-04-11 Single Family Tri-Level 2328 Parkmeadow Dr Beloit, WI 53511 $169,900 1,823 sq. ft. 13,939 sq. ft. $93
2017-04-11 Single Family Cape Cod 1143 Eaton Ave Beloit, WI 53511 $113,900 1,435 sq. ft. 5,663 sq. ft. $79
2017-04-07 Single Family Ranch 2041 Shopiere Rd Beloit, WI 53511 $69,900 1,064 sq. ft. 12,632 sq. ft. $66
2017-04-06 Single Family Contemporary 1137 8th St Beloit, WI 53511 $48,300 1,593 sq. ft. 6,094 sq. ft. $30
2017-04-04 Single Family National Folk/Farm 1145 Prairie Ave Beloit, WI 53511 $99,900 1,592 sq. ft. 8,712 sq. ft. $63
2017-04-01 Single Family Colonial 1525 Ridge Rd Beloit, WI 53511 $147,500 1,899 sq. ft. 23,087 sq. ft. $78
2017-04-01 Single Family Tri-Level 1806 Janie Ln Beloit, WI 53511 $109,900 1,458 sq. ft. 9,148 sq. ft. $75
2017-03-31 Single Family Ranch 1551 Bayliss Ave Beloit, WI 53511 $79,000 1,431 sq. ft. 10,149 sq. ft. $55
2017-03-30 Single Family Contemporary 2145 Elmwood Ave Beloit, WI 53511 $175,000 2,021 sq. ft. 10,890 sq. ft. $87
2017-03-26 Single Family Colonial 224 Moore St Beloit, WI 53511 $69,000 1,014 sq. ft. 7,231 sq. ft. $68
2017-03-22 Single Family Ranch 1967 Greenview Dr Beloit, WI 53511 $128,500 1,860 sq. ft. 6,970 sq. ft. $69
2017-03-21 Single Family Ranch 2244 Boulder Ct Beloit, WI 53511 $224,900 3,357 sq. ft. 13,024 sq. ft. $67
2017-03-20 Single Family Ranch 1828 Garfield Ave Beloit, WI 53511 $107,900 1,617 sq. ft. 10,890 sq. ft. $67
2017-03-20 Single Family Colonial 1509 Ridge Rd Beloit, WI 53511 $184,000 2,178 sq. ft. 22,521 sq. ft. $84
2017-03-20 Single Family Cape Cod 709 Merrill St Beloit, WI 53511 $104,900 2,043 sq. ft. 10,454 sq. ft. $51
2017-03-16 Single Family Ranch 2838 Riverside Dr Beloit, WI 53511 $154,900 1,078 sq. ft. 14,418 sq. ft. $144
2017-03-13 Single Family Tri-Level 717 Kelsey Rd Beloit, WI 53511 $169,900 1,336 sq. ft. 18,300 sq. ft. $127
2017-03-09 Single Family Bungalow 1107 Elm St Beloit, WI 53511 $39,000 852 sq. ft. 6,098 sq. ft. $46
2017-03-08 Single Family 751 Elm St Beloit, WI 53511 $61,500 1,630 sq. ft. 8,712 sq. ft. $38
2017-03-08 Single Family National Folk/Farm 312 Middle St Beloit, WI 53511 $55,000 1,414 sq. ft. 5,227 sq. ft. $39
2017-03-07 Single Family Ranch 3740 Golden Eagle Dr Beloit, WI 53511 $188,150 1,540 sq. ft. 10,890 sq. ft. $122
2017-03-03 Single Family Bi-Level 2003 Fairview Dr Beloit, WI 53511 $99,900 1,662 sq. ft. 8,625 sq. ft. $60
2017-03-01 Single Family Colonial 2645 Chatsworth Dr Beloit, WI 53511 $207,500 3,672 sq. ft. 15,682 sq. ft. $57
2017-02-23 Single Family Ranch 790 Jonquil Ct Beloit, WI 53511 $229,900 3,518 sq. ft. 33,193 sq. ft. $65
2017-02-20 Single Family Ranch 3069 High Crest Rd Beloit, WI 53511 $169,000 1,772 sq. ft. 4,356 sq. ft. $95
2017-02-16 Single Family Bungalow 743 Garfield Ave Beloit, WI 53511 $64,900 1,383 sq. ft. 6,098 sq. ft. $47
2017-02-10 Single Family Victorian 722 St Lawrence Ave Beloit, WI 53511 $37,900 1,390 sq. ft. 7,405 sq. ft. $27
2017-02-08 Single Family Log Home 1702 Kenwood Ave Beloit, WI 53511 $39,500 1,560 sq. ft. 17,642 sq. ft. $25
2017-02-07 Single Family Tudor/Provincial 1016 Harrison Ave Beloit, WI 53511 $69,000 1,211 sq. ft. 8,712 sq. ft. $57
2017-02-07 Single Family Bungalow 1209 Hackett St Beloit, WI 53511 $65,000 1,134 sq. ft. 6,098 sq. ft. $57
2017-02-06 Single Family 349 Locust St Beloit, WI 53511 $42,000 1,380 sq. ft. 4,356 sq. ft. $30
2017-01-31 Single Family 2224 Grand Ave Beloit, WI 53511 $60,000 1,560 sq. ft. 6,665 sq. ft. $38
2017-01-27 Single Family Colonial 2378 Riverside Dr Beloit, WI 53511 $224,900 1,856 sq. ft. 46,566 sq. ft. $121
2017-01-25 Single Family 1121 Randall St Beloit, WI 53511 $30,000 1,232 sq. ft. 9,583 sq. ft. $24
2017-01-21 Single Family Bungalow 1115 Merrill Ave Beloit, WI 53511 $64,900 1,519 sq. ft. 5,489 sq. ft. $43
2017-01-19 Single Family Bungalow 1135 Dewey Ave Beloit, WI 53511 $59,000 1,001 sq. ft. 5,663 sq. ft. $59
2016-12-31 Single Family Contemporary 833 Petunia Ln Beloit, WI 53511 $184,900 3,100 sq. ft. 12,284 sq. ft. $60
2016-12-27 Single Family Ranch 2328 Dewey Ave Beloit, WI 53511 $89,900 1,188 sq. ft. 33,106 sq. ft. $76
2016-11-30 Single Family Ranch 2260 Genevieve Ave Beloit, WI 53511 $224,900 2,019 sq. ft. 20,168 sq. ft. $111
2016-11-18 Single Family Colonial 944 11th St Beloit, WI 53511 $62,500 1,344 sq. ft. 5,619 sq. ft. $46
2016-11-15 Single Family National Folk/Farm 530 Highland Ave Beloit, WI 53511 $67,900 1,700 sq. ft. 8,276 sq. ft. $40
2016-10-26 Single Family Victorian 756 Elm St Beloit, WI 53511 $37,500 1,588 sq. ft. 8,712 sq. ft. $24
2016-10-24 Single Family National Folk/Farm 1142 Elm St Beloit, WI 53511 $69,900 1,402 sq. ft. 6,098 sq. ft. $50
2016-10-18 Single Family 2908 Riverside Dr Beloit, WI 53511 $220,000 2,088 sq. ft. 46,217 sq. ft. $105
2016-10-11 Single Family Ranch 2340 Deer Path Way Beloit, WI 53511 $225,000 1,754 sq. ft. 15,246 sq. ft. $128
2016-10-02 Single Family 916 Washburn St Beloit, WI 53511 $29,900 780 sq. ft. 4,792 sq. ft. $38
2016-09-28 Single Family Ranch 2290 Bootmaker Dr Beloit, WI 53511 $158,500 2,197 sq. ft. 19,602 sq. ft. $72
2016-09-16 Single Family Tudor/Provincial 3654 Bee Ln Beloit, WI 53511 $259,900 3,007 sq. ft. 24,394 sq. ft. $86
2016-09-11 Single Family Ranch 1465 Central Ave Beloit, WI 53511 $49,900 817 sq. ft. 6,142 sq. ft. $61
2016-09-06 Single Family Transitional 1116 Bushnell St Beloit, WI 53511 $79,900 1,496 sq. ft. 2,701 sq. ft. $53
2016-08-19 Single Family 952 Vine St Beloit, WI 53511 $69,900 1,604 sq. ft. 8,712 sq. ft. $44
2016-08-18 Single Family Ranch 1002 Ritsher St Beloit, WI 53511 $89,900 1,632 sq. ft. 8,276 sq. ft. $55
2016-08-13 Single Family National Folk/Farm 735 8th St Beloit, WI 53511 $76,900 1,320 sq. ft. 8,712 sq. ft. $58
2016-08-01 Single Family Ranch 3610 Idlewild Dr Beloit, WI 53511 $119,500 1,092 sq. ft. 11,282 sq. ft. $109
2016-07-11 Single Family Ranch 2242 Moccasin Tr Beloit, WI 53511 $217,900 1,712 sq. ft. 18,731 sq. ft. $127
2016-06-27 Single Family Colonial 316 Portland Ave Beloit, WI 53511 $59,999 1,404 sq. ft. 3,528 sq. ft. $43
2016-06-27 Single Family National Folk/Farm 9408 Hwy 213 Beloit, WI 53511 $110,000 2,200 sq. ft. 197,762 sq. ft. $50
2016-06-26 Single Family Ranch 3635 Eagles Ridge Dr Beloit, WI 53511 $201,800 1,803 sq. ft. 10,890 sq. ft. $112
2016-05-18 Single Family Raised Ranch 2054 Kenwood Ave Beloit, WI 53511 $135,000 2,960 sq. ft. 12,632 sq. ft. $46
2016-05-12 Single Family Victorian 800 Wisconsin Ave Beloit, WI 53511 $149,900 2,646 sq. ft. 13,939 sq. ft. $57
2016-01-12 Single Family Cape Cod 1245 Hinsdale Ave Beloit, WI 53511 $79,400 2,462 sq. ft. 7,405 sq. ft. $32